createdAt,value
2022-11-10T00:04:19.329Z,10.67
2022-11-10T00:10:02.309Z,10.73
2022-11-10T00:16:01.337Z,10.66
2022-11-10T00:21:44.352Z,10.54
2022-11-10T00:27:27.321Z,10.44
2022-11-10T00:33:13.425Z,10.33
2022-11-10T00:38:56.337Z,10.32
2022-11-10T00:44:39.322Z,10.33
2022-11-10T00:50:25.350Z,10.34
2022-11-10T00:56:08.334Z,10.35
2022-11-10T01:01:51.380Z,10.30
2022-11-10T01:07:37.346Z,10.21
2022-11-10T01:13:20.589Z,10.13
2022-11-10T01:19:07.344Z,10.10
2022-11-10T01:24:53.374Z,10.06
2022-11-10T01:30:36.341Z,10.00
2022-11-10T01:36:21.345Z,9.93
2022-11-10T01:42:08.367Z,9.79
2022-11-10T01:47:51.380Z,9.73
2022-11-10T01:53:38.386Z,9.66
2022-11-10T01:59:28.397Z,9.58
2022-11-10T02:05:13.397Z,9.53
2022-11-10T02:10:56.449Z,9.46
2022-11-10T02:16:44.402Z,9.42
2022-11-10T02:22:30.365Z,9.36
2022-11-10T02:28:19.369Z,9.27
2022-11-10T02:34:03.449Z,9.12
2022-11-10T02:39:48.493Z,8.89
2022-11-10T02:45:31.414Z,8.70
2022-11-10T02:51:15.432Z,8.68
2022-11-10T02:57:02.396Z,8.62
2022-11-10T03:02:45.479Z,8.53
2022-11-10T03:08:28.432Z,8.43
2022-11-10T03:14:14.431Z,8.36
2022-11-10T03:19:57.401Z,8.32
2022-11-10T03:25:41.427Z,8.27
2022-11-10T03:31:33.429Z,8.25
2022-11-10T03:37:16.419Z,8.23
2022-11-10T03:42:59.429Z,8.15
2022-11-10T03:48:51.857Z,8.12
2022-11-10T03:54:37.443Z,8.05
2022-11-10T04:00:23.439Z,7.98
2022-11-10T04:06:21.698Z,7.91
2022-11-10T04:12:20.710Z,7.84
2022-11-10T04:18:27.452Z,7.78
2022-11-10T04:24:13.483Z,7.71
2022-11-10T04:29:56.434Z,7.64
2022-11-10T04:35:39.496Z,7.56
2022-11-10T04:41:25.444Z,7.45
2022-11-10T04:47:11.789Z,7.36
2022-11-10T04:52:54.492Z,7.31
2022-11-10T04:58:40.508Z,7.26
2022-11-10T05:04:24.229Z,7.24
2022-11-10T05:10:07.483Z,7.20
2022-11-10T05:15:53.470Z,7.15
2022-11-10T05:21:37.479Z,7.14
2022-11-10T05:27:20.501Z,7.02
2022-11-10T05:33:12.589Z,6.94
2022-11-10T05:38:55.491Z,6.91
2022-11-10T05:44:38.522Z,6.90
2022-11-10T05:50:24.487Z,6.89
2022-11-10T05:56:07.490Z,6.84
2022-11-10T06:01:50.505Z,6.85
2022-11-10T06:07:35.507Z,6.82
2022-11-10T06:13:19.646Z,6.77
2022-11-10T06:19:08.537Z,6.74
2022-11-10T06:24:54.538Z,6.68
2022-11-10T06:30:45.659Z,6.61
2022-11-10T06:36:28.502Z,6.59
2022-11-10T06:42:14.514Z,6.58
2022-11-10T06:47:57.521Z,6.53
2022-11-10T06:53:40.509Z,6.56
2022-11-10T06:59:26.591Z,6.57
2022-11-10T07:05:09.533Z,6.58
2022-11-10T07:10:52.535Z,6.59
2022-11-10T07:16:37.555Z,6.71
2022-11-10T07:22:21.526Z,6.83
2022-11-10T07:28:09.518Z,6.91
2022-11-10T07:33:55.547Z,7.00
2022-11-10T07:39:38.534Z,7.05
2022-11-10T07:45:27.525Z,7.18
2022-11-10T07:51:13.544Z,7.29
2022-11-10T07:56:56.570Z,7.45
2022-11-10T08:02:39.546Z,7.62
2022-11-10T08:08:25.574Z,7.78
2022-11-10T08:14:09.552Z,8.08
2022-11-10T08:19:52.536Z,8.46
2022-11-10T08:25:39.570Z,8.79
2022-11-10T08:31:28.550Z,9.37
2022-11-10T08:37:11.580Z,9.60
2022-11-10T08:42:57.563Z,9.83
2022-11-10T08:48:40.571Z,10.03
2022-11-10T08:54:23.584Z,10.26
2022-11-10T09:00:09.609Z,10.49
2022-11-10T09:05:58.064Z,10.68
2022-11-10T09:11:41.561Z,10.86
2022-11-10T09:17:27.585Z,11.15
2022-11-10T09:23:14.623Z,11.37
2022-11-10T09:28:57.694Z,11.34
2022-11-10T09:34:46.637Z,11.12
2022-11-10T09:40:37.590Z,10.99
2022-11-10T09:46:27.727Z,11.23
2022-11-10T09:52:15.628Z,11.38
2022-11-10T09:58:03.590Z,11.56
2022-11-10T10:03:48.806Z,11.68
2022-11-10T10:09:43.613Z,11.74
2022-11-10T10:15:44.610Z,11.82
2022-11-10T10:21:48.605Z,11.89
2022-11-10T10:27:37.672Z,11.81
2022-11-10T10:33:32.661Z,11.95
2022-11-10T10:39:22.658Z,12.14
2022-11-10T10:45:38.672Z,12.20
2022-11-10T10:51:37.649Z,12.18
2022-11-10T10:57:35.648Z,12.31
2022-11-10T11:03:33.696Z,12.36
2022-11-10T11:09:21.650Z,12.45
2022-11-10T11:15:21.644Z,12.63
2022-11-10T11:21:15.631Z,12.84
2022-11-10T11:27:05.702Z,12.94
2022-11-10T11:33:13.663Z,12.81
2022-11-10T11:39:08.775Z,12.87
2022-11-10T11:45:11.667Z,12.83
2022-11-10T11:51:04.693Z,12.81
2022-11-10T11:56:56.667Z,12.70
2022-11-10T12:03:20.700Z,12.55
2022-11-10T12:09:11.681Z,12.44
2022-11-10T12:15:03.652Z,12.56
2022-11-10T12:20:58.682Z,12.78
2022-11-10T12:26:49.800Z,12.77
2022-11-10T12:32:49.687Z,12.85
2022-11-10T12:38:40.701Z,12.88
2022-11-10T12:44:33.889Z,12.92
2022-11-10T12:50:34.689Z,12.94
2022-11-10T12:56:22.693Z,12.97
2022-11-10T13:02:11.726Z,13.16
2022-11-10T13:07:58.729Z,13.28
2022-11-10T13:13:59.449Z,13.38
2022-11-10T13:20:27.888Z,13.15
2022-11-10T13:26:14.713Z,12.91
2022-11-10T13:32:12.711Z,12.70
2022-11-10T13:37:58.732Z,12.63
2022-11-10T13:43:45.804Z,12.59
2022-11-10T13:49:44.838Z,12.48
2022-11-10T13:55:37.754Z,12.44
2022-11-10T14:01:36.749Z,12.32
2022-11-10T14:07:28.874Z,12.24
2022-11-10T14:13:16.805Z,12.43
2022-11-10T14:19:10.793Z,12.60
2022-11-10T14:25:03.757Z,12.75
2022-11-10T14:30:53.768Z,12.85
2022-11-10T14:36:41.068Z,12.74
2022-11-10T14:42:30.775Z,12.70
2022-11-10T14:48:28.032Z,12.45
2022-11-10T14:54:13.757Z,12.36
2022-11-10T14:59:57.798Z,12.14
2022-11-10T15:05:41.989Z,11.94
2022-11-10T15:11:47.811Z,11.70
2022-11-10T15:17:32.810Z,11.40
2022-11-10T15:23:33.609Z,11.17
2022-11-10T15:29:33.798Z,10.91
2022-11-10T15:35:20.788Z,10.67
2022-11-10T15:41:06.808Z,10.46
2022-11-10T15:46:53.833Z,10.27
2022-11-10T15:52:40.817Z,10.13
2022-11-10T15:58:25.289Z,10.01
2022-11-10T16:04:11.800Z,9.87
2022-11-10T16:09:55.823Z,9.70
2022-11-10T16:15:38.850Z,9.59
2022-11-10T16:21:27.802Z,9.41
2022-11-10T16:27:11.923Z,9.20
2022-11-10T16:32:55.842Z,9.13
2022-11-10T16:38:43.814Z,9.02
2022-11-10T16:44:30.059Z,8.97
2022-11-10T16:50:17.846Z,8.90
2022-11-10T16:56:04.227Z,8.79
2022-11-10T17:01:58.972Z,8.70
2022-11-10T17:07:43.841Z,8.63
2022-11-10T17:13:29.914Z,8.57
2022-11-10T17:19:16.862Z,8.58
2022-11-10T17:25:00.860Z,8.54
2022-11-10T17:30:52.851Z,8.50
2022-11-10T17:36:36.870Z,8.46
2022-11-10T17:42:19.895Z,8.41
2022-11-10T17:48:06.997Z,8.44
2022-11-10T17:53:49.872Z,8.40
2022-11-10T17:59:33.861Z,8.36
2022-11-10T18:05:20.875Z,8.31
2022-11-10T18:11:04.989Z,8.30
2022-11-10T18:16:47.868Z,8.32
2022-11-10T18:22:41.897Z,8.33
2022-11-10T18:28:32.046Z,8.34
2022-11-10T18:34:14.910Z,8.33
2022-11-10T18:40:01.917Z,8.26
2022-11-10T18:45:45.896Z,8.25
2022-11-10T18:51:29.870Z,8.22
2022-11-10T18:57:15.888Z,8.20
2022-11-10T19:02:59.302Z,8.16
2022-11-10T19:08:41.909Z,8.17
2022-11-10T19:14:27.903Z,8.14
2022-11-10T19:20:11.895Z,8.11
2022-11-10T19:25:56.201Z,8.07
2022-11-10T19:31:48.060Z,8.05
2022-11-10T19:37:34.437Z,8.00
2022-11-10T19:43:19.114Z,7.96
2022-11-10T19:49:04.915Z,7.97
2022-11-10T19:54:50.025Z,7.97
2022-11-10T20:00:32.955Z,7.95
2022-11-10T20:06:20.034Z,7.98
2022-11-10T20:12:02.961Z,7.93
2022-11-10T20:17:46.961Z,7.86
2022-11-10T20:23:32.932Z,7.85
2022-11-10T20:29:15.932Z,7.84
2022-11-10T20:34:58.955Z,7.83
2022-11-10T20:40:45.362Z,7.83
2022-11-10T20:46:53.629Z,7.81
2022-11-10T20:52:33.965Z,7.78
2022-11-10T20:58:19.978Z,7.69
2022-11-10T21:04:02.974Z,7.65
2022-11-10T21:09:45.988Z,7.70
2022-11-10T21:15:31.954Z,7.66
2022-11-10T21:21:29.961Z,7.63
2022-11-10T21:27:12.977Z,7.58
2022-11-10T21:32:59.955Z,7.61
2022-11-10T21:38:42.995Z,7.60
2022-11-10T21:44:25.969Z,7.53
2022-11-10T21:50:10.965Z,7.49
2022-11-10T21:55:53.990Z,7.47
2022-11-10T22:01:37.109Z,7.42
2022-11-10T22:07:34.957Z,7.40
2022-11-10T22:13:33.013Z,7.33
2022-11-10T22:19:18.024Z,7.23
2022-11-10T22:25:03.983Z,7.20
2022-11-10T22:30:53.025Z,7.21
2022-11-10T22:36:35.991Z,7.19
2022-11-10T22:42:35.159Z,7.17
2022-11-10T22:48:36.015Z,7.14
2022-11-10T22:54:21.021Z,7.11
2022-11-10T23:00:07.025Z,7.08
2022-11-10T23:05:55.074Z,7.09
2022-11-10T23:11:41.008Z,7.11
2022-11-10T23:17:27.006Z,7.11
2022-11-10T23:23:11.026Z,7.15
2022-11-10T23:29:03.043Z,7.19
2022-11-10T23:34:49.041Z,7.19
2022-11-10T23:40:33.033Z,7.19
2022-11-10T23:46:16.049Z,7.17
2022-11-10T23:52:02.041Z,7.21
2022-11-10T23:57:45.022Z,7.20
